Kezdőlap
METAR-TAF:

METAR-TAF

Repülőterek :

Creston, Iowa, Amerikai Egyesült Államok

földrajzi szélesség: 41-01N, földrajzi hosszúság: 094-22W, magasság: 394 m

Jelenlegi meteorológiai megfigyelések

A jelentés 16 perccel ezelõtt készült, 15:55 UTC
Keleti szél 6 kt
Hőmérséklet -9°C
Páratartalom 100%
Légköri nyomás 1018 hPa
Látótávolság: 16.1 km
Derült ég

METAR: KCSQ 151555Z AUTO 10006KT 10SM CLR M09/M09 A3007 RMK AO2

Idő: 10:11 (16:11 UTC)


TAF: hiányzik

Meteorológiai megfigyelések és előrejelzések több, mint 4000 repülőtéren (METAR és TAF jelentéseket).

A térképen piros és sárga pontok jelzik az elérhető meteorológiai állomásokat.

Mozgassa az egeret a pont fölött, hogy megjelenjen az állomás neve.

Azután kattintson az időjárási megfigyelések és előrejelzések megtekintéséhez.

A térkép megváltoztatása: kattintson a fekete keresztel jelölt zöld gombra ráközelítéshez, a vonallal jelölt zöld gombra távolításhoz, vagy a zöld nyilakra a szomszédos térképek eléréséhez.


METAR-TAF: